Eseniya — UBYI3 — position and weather

sailwx.info

Track history (hours):
 
Tides and Currents Weather Stations Pressure Air Temp Water Temp Dewpoint Dewpoint Depression Visibility Wind Speed Wind Dir Waves Ship Positions

Eseniya

Last reported at 2018-Jun-10 00:34 UTC. Time now 2018-Jun-18 23:18 UTC.
Position N 01°26' E 103°13'.
Warning: this ship's position is 8 days out of date.

Length 99 m; draft 5.2 m.

Type: Cargo ship. MMSI: 273356870.

Date/timePositionNaut miles runAvg speedWind from/ knotsBaromVisibWave heightAir tempDewpointWater temp
2018-Jun-10 00:34N 01°26' E 103°13'111.4
2018-Jun-10 00:29N 01°25' E 103°14'611.7
2018-Jun-09 23:58N 01°21' E 103°18'611.7
2018-Jun-09 23:28N 01°17' E 103°23'611.5
2018-Jun-09 22:58N 01°14' E 103°27'511.7
2018-Jun-09 22:30N 01°13' E 103°33'612.1
2018-Jun-09 22:00N 01°12' E 103°39'611.4
2018-Jun-09 21:30N 01°09' E 103°43'611.0
2018-Jun-09 21:00N 01°11' E 103°49'510.8
2018-Jun-09 20:31N 01°13' E 103°54'510.3
2018-Jun-09 20:00N 01°15' E 103°58'510.3
2018-Jun-09 19:30N 01°16' E 104°03'611.5
2018-Jun-09 19:00N 01°17' E 104°09'510.8
2018-Jun-09 18:30N 01°18' E 104°14'5 8.9
2018-Jun-09 18:00N 01°19' E 104°19'2 4.3
2018-Jun-09 17:29N 01°21' E 104°20'0 0.0
2018-Jun-09 16:55N 01°21' E 104°20'0 0.0
2018-Jun-09 16:28N 01°21' E 104°20'0 0.0
2018-Jun-09 15:07N 01°21' E 104°20'0 0.1
2018-Jun-09 12:39N 01°21' E 104°20'0 0.0
2018-Jun-09 10:20N 01°21' E 104°20'1 3.5
2018-Jun-09 09:57N 01°20' E 104°20'612.0
2018-Jun-09 09:28N 01°23' E 104°24'  
2018-Jun-03 10:44N 23°14' E 117°39'412.7
2018-Jun-03 10:26N 23°17' E 117°42'512.9
2018-Jun-03 10:00N 23°20' E 117°46'612.8
2018-Jun-03 09:30N 23°25' E 117°52'612.8
2018-Jun-03 09:00N 23°29' E 117°57'612.7
2018-Jun-03 08:30N 23°33' E 118°02'612.8
2018-Jun-03 08:00N 23°37' E 118°07'612.7
2018-Jun-03 07:29N 23°42' E 118°12'612.5
2018-Jun-03 07:00N 23°46' E 118°18'612.4
2018-Jun-03 06:30N 23°50' E 118°23'612.3
2018-Jun-03 06:00N 23°54' E 118°28'612.0
2018-Jun-03 05:28N 23°58' E 118°33'511.8
2018-Jun-03 05:01N 24°02' E 118°37'611.7
2018-Jun-03 04:28N 24°06' E 118°42'511.6
2018-Jun-03 04:00N 24°10' E 118°47'611.4
2018-Jun-03 03:30N 24°13' E 118°51'1211.3
2018-Jun-03 02:26N 24°21' E 119°01'43610.4
2018-Jun-01 08:37N 31°02' E 122°15'212.7
2018-Jun-01 08:27N 31°02' E 122°13'612.1
2018-Jun-01 08:00N 31°03' E 122°06'613.3
2018-Jun-01 07:30N 31°06' E 121°59'1111.7
2018-Jun-01 06:35N 31°12' E 121°49'22 9.1
2018-Jun-01 04:10N 31°26' E 121°29'1 5.3
2018-Jun-01 03:57N 31°27' E 121°28'3 5.9
2018-Jun-01 03:30N 31°29' E 121°26'6 9.7
2018-Jun-01 02:55N 31°32' E 121°21'512.9
2018-Jun-01 02:31N 31°36' E 121°17'4 7.2
2018-Jun-01 01:55N 31°39' E 121°13'0 0.0
2018-Jun-01 01:28N 31°39' E 121°13'0 0.0
2018-Jun-01 00:01N 31°39' E 121°13'0 0.0
2018-May-31 23:34N 31°39' E 121°13'0 0.0
2018-May-31 23:25N 31°39' E 121°13'0 0.0
2018-May-31 22:49N 31°39' E 121°13'0 0.0
2018-May-31 21:55N 31°39' E 121°13'0 0.0
2018-May-31 21:19N 31°39' E 121°13'0 0.0
2018-May-31 19:10N 31°39' E 121°13'0 0.0
2018-May-31 18:55N 31°39' E 121°13'0 0.0
2018-May-31 18:28N 31°39' E 121°13'0 0.0
2018-May-31 17:25N 31°39' E 121°13'0 0.0
2018-May-31 17:01N 31°39' E 121°13'0 0.0
2018-May-31 16:25N 31°39' E 121°13'0 0.3
2018-May-31 15:59N 31°39' E 121°13'2 2.9
2018-May-31 15:15N 31°39' E 121°15'0 0.1
2018-May-31 14:57N 31°39' E 121°15'0 0.0
2018-May-31 14:30N 31°39' E 121°15'0 0.0
2018-May-31 13:57N 31°39' E 121°15'0 0.0
2018-May-31 13:27N 31°39' E 121°15'0 0.0
2018-May-31 13:00N 31°39' E 121°15'0 0.0
2018-May-31 12:30N 31°39' E 121°15'0 0.0
2018-May-31 11:57N 31°39' E 121°15'0 0.0
2018-May-31 11:30N 31°39' E 121°15'0 0.0
2018-May-31 11:00N 31°39' E 121°15'0 0.0
2018-May-31 10:24N 31°39' E 121°15'0 0.0
2018-May-31 10:00N 31°39' E 121°15'0 0.0
2018-May-31 09:30N 31°39' E 121°15'0 0.0
2018-May-31 09:00N 31°39' E 121°15'0 0.0
2018-May-31 08:30N 31°39' E 121°15'0 0.1
2018-May-31 07:57N 31°39' E 121°15'0 0.1
2018-May-31 07:15N 31°39' E 121°15'0 0.0
2018-May-31 06:45N 31°39' E 121°15'0 0.0
2018-May-31 06:30N 31°39' E 121°15'0 0.0
2018-May-31 06:00N 31°39' E 121°15'0 0.0
2018-May-31 05:27N 31°39' E 121°15'0 0.0
2018-May-31 04:51N 31°39' E 121°15'0 0.0
2018-May-31 04:30N 31°39' E 121°15'  
Track history (hours):
 
Tides and Currents Weather Stations Pressure Air Temp Water Temp Dewpoint Dewpoint Depression Visibility Wind Speed Wind Dir Waves Ship Positions

Eseniya

Last reported at 2018-Jun-10 00:34 UTC. Time now 2018-Jun-18 23:18 UTC.
Position N 01°26' E 103°13'.
Warning: this ship's position is 8 days out of date.

Length 99 m; draft 5.2 m.

Type: Cargo ship. MMSI: 273356870.

Date/timePositionNaut miles runAvg speedWind from/ knotsBaromVisibWave heightAir tempDewpointWater temp
2018-Jun-10 00:34N 01°26' E 103°13'111.4
2018-Jun-10 00:29N 01°25' E 103°14'611.7
2018-Jun-09 23:58N 01°21' E 103°18'611.7
2018-Jun-09 23:28N 01°17' E 103°23'611.5
2018-Jun-09 22:58N 01°14' E 103°27'511.7
2018-Jun-09 22:30N 01°13' E 103°33'612.1
2018-Jun-09 22:00N 01°12' E 103°39'611.4
2018-Jun-09 21:30N 01°09' E 103°43'611.0
2018-Jun-09 21:00N 01°11' E 103°49'510.8
2018-Jun-09 20:31N 01°13' E 103°54'510.3
2018-Jun-09 20:00N 01°15' E 103°58'510.3
2018-Jun-09 19:30N 01°16' E 104°03'611.5
2018-Jun-09 19:00N 01°17' E 104°09'510.8
2018-Jun-09 18:30N 01°18' E 104°14'5 8.9
2018-Jun-09 18:00N 01°19' E 104°19'2 4.3
2018-Jun-09 17:29N 01°21' E 104°20'0 0.0
2018-Jun-09 16:55N 01°21' E 104°20'0 0.0
2018-Jun-09 16:28N 01°21' E 104°20'0 0.0
2018-Jun-09 15:07N 01°21' E 104°20'0 0.1
2018-Jun-09 12:39N 01°21' E 104°20'0 0.0
2018-Jun-09 10:20N 01°21' E 104°20'1 3.5
2018-Jun-09 09:57N 01°20' E 104°20'612.0
2018-Jun-09 09:28N 01°23' E 104°24'  
2018-Jun-03 10:44N 23°14' E 117°39'412.7
2018-Jun-03 10:26N 23°17' E 117°42'512.9
2018-Jun-03 10:00N 23°20' E 117°46'612.8
2018-Jun-03 09:30N 23°25' E 117°52'612.8
2018-Jun-03 09:00N 23°29' E 117°57'612.7
2018-Jun-03 08:30N 23°33' E 118°02'612.8
2018-Jun-03 08:00N 23°37' E 118°07'612.7
2018-Jun-03 07:29N 23°42' E 118°12'612.5
2018-Jun-03 07:00N 23°46' E 118°18'612.4
2018-Jun-03 06:30N 23°50' E 118°23'612.3
2018-Jun-03 06:00N 23°54' E 118°28'612.0
2018-Jun-03 05:28N 23°58' E 118°33'511.8
2018-Jun-03 05:01N 24°02' E 118°37'611.7
2018-Jun-03 04:28N 24°06' E 118°42'511.6
2018-Jun-03 04:00N 24°10' E 118°47'611.4
2018-Jun-03 03:30N 24°13' E 118°51'1211.3
2018-Jun-03 02:26N 24°21' E 119°01'43610.4
2018-Jun-01 08:37N 31°02' E 122°15'212.7
2018-Jun-01 08:27N 31°02' E 122°13'612.1
2018-Jun-01 08:00N 31°03' E 122°06'613.3
2018-Jun-01 07:30N 31°06' E 121°59'1111.7
2018-Jun-01 06:35N 31°12' E 121°49'22 9.1
2018-Jun-01 04:10N 31°26' E 121°29'1 5.3
2018-Jun-01 03:57N 31°27' E 121°28'3 5.9
2018-Jun-01 03:30N 31°29' E 121°26'6 9.7
2018-Jun-01 02:55N 31°32' E 121°21'512.9
2018-Jun-01 02:31N 31°36' E 121°17'4 7.2
2018-Jun-01 01:55N 31°39' E 121°13'0 0.0
2018-Jun-01 01:28N 31°39' E 121°13'0 0.0
2018-Jun-01 00:01N 31°39' E 121°13'0 0.0
2018-May-31 23:34N 31°39' E 121°13'0 0.0
2018-May-31 23:25N 31°39' E 121°13'0 0.0
2018-May-31 22:49N 31°39' E 121°13'0 0.0
2018-May-31 21:55N 31°39' E 121°13'0 0.0
2018-May-31 21:19N 31°39' E 121°13'0 0.0
2018-May-31 19:10N 31°39' E 121°13'0 0.0
2018-May-31 18:55N 31°39' E 121°13'0 0.0
2018-May-31 18:28N 31°39' E 121°13'0 0.0
2018-May-31 17:25N 31°39' E 121°13'0 0.0
2018-May-31 17:01N 31°39' E 121°13'0 0.0
2018-May-31 16:25N 31°39' E 121°13'0 0.3
2018-May-31 15:59N 31°39' E 121°13'2 2.9
2018-May-31 15:15N 31°39' E 121°15'0 0.1
2018-May-31 14:57N 31°39' E 121°15'0 0.0
2018-May-31 14:30N 31°39' E 121°15'0 0.0
2018-May-31 13:57N 31°39' E 121°15'0 0.0
2018-May-31 13:27N 31°39' E 121°15'0 0.0
2018-May-31 13:00N 31°39' E 121°15'0 0.0
2018-May-31 12:30N 31°39' E 121°15'0 0.0
2018-May-31 11:57N 31°39' E 121°15'0 0.0
2018-May-31 11:30N 31°39' E 121°15'0 0.0
2018-May-31 11:00N 31°39' E 121°15'0 0.0
2018-May-31 10:24N 31°39' E 121°15'0 0.0
2018-May-31 10:00N 31°39' E 121°15'0 0.0
2018-May-31 09:30N 31°39' E 121°15'0 0.0
2018-May-31 09:00N 31°39' E 121°15'0 0.0
2018-May-31 08:30N 31°39' E 121°15'0 0.1
2018-May-31 07:57N 31°39' E 121°15'0 0.1
2018-May-31 07:15N 31°39' E 121°15'0 0.0
2018-May-31 06:45N 31°39' E 121°15'0 0.0
2018-May-31 06:30N 31°39' E 121°15'0 0.0
2018-May-31 06:00N 31°39' E 121°15'0 0.0
2018-May-31 05:27N 31°39' E 121°15'0 0.0
2018-May-31 04:51N 31°39' E 121°15'0 0.0
2018-May-31 04:30N 31°39' E 121°15'  

Dump ship's entire track history